createdAt,value
2019-04-11T00:00:35.539Z,8.83
2019-04-11T00:03:05.034Z,6.83
2019-04-11T00:05:35.037Z,8.95
2019-04-11T00:08:04.104Z,8.78
2019-04-11T00:10:33.355Z,8.73
2019-04-11T00:13:14.293Z,4.08
2019-04-11T00:15:32.859Z,7.53
2019-04-11T00:18:02.833Z,5.37
2019-04-11T00:20:31.901Z,8.03
2019-04-11T00:23:02.241Z,8.38
2019-04-11T00:25:33.687Z,7.92
2019-04-11T00:28:03.499Z,4.95
2019-04-11T00:30:32.407Z,7.42
2019-04-11T00:33:02.145Z,5.72
2019-04-11T00:35:31.452Z,10.53
2019-04-11T00:38:02.464Z,9.55
2019-04-11T00:40:31.320Z,6.12
2019-04-11T00:43:01.051Z,7.08
2019-04-11T00:45:29.910Z,5.65
2019-04-11T00:47:59.642Z,8.28
2019-04-11T00:50:29.108Z,7.12
2019-04-11T00:52:58.857Z,11.45
2019-04-11T00:55:27.699Z,5.67
2019-04-11T00:57:57.124Z,5.80
2019-04-11T01:00:27.039Z,7.50
2019-04-11T01:02:56.021Z,9.15
2019-04-11T01:05:25.640Z,9.13
2019-04-11T01:07:55.397Z,6.92
2019-04-11T01:10:25.007Z,10.63
2019-04-11T01:12:53.817Z,5.95
2019-04-11T01:15:24.228Z,9.15
2019-04-11T01:17:53.872Z,5.70
2019-04-11T01:20:23.710Z,6.75
2019-04-11T01:22:52.693Z,6.78
2019-04-11T01:25:22.187Z,8.13
2019-04-11T01:27:51.195Z,5.22
2019-04-11T01:30:23.025Z,7.05
2019-04-11T01:32:52.715Z,7.70
2019-04-11T01:35:21.552Z,6.33
2019-04-11T01:37:50.349Z,5.97
2019-04-11T01:40:19.255Z,8.40
2019-04-11T01:42:49.184Z,8.03
2019-04-11T01:45:21.132Z,6.15
2019-04-11T01:47:55.269Z,6.55
2019-04-11T01:50:25.753Z,5.78
2019-04-11T01:52:54.997Z,6.08
2019-04-11T01:55:24.150Z,2.83
2019-04-11T01:57:54.038Z,5.42
2019-04-11T02:00:36.713Z,8.20
2019-04-11T02:03:07.197Z,5.10
2019-04-11T02:05:36.893Z,5.40
2019-04-11T02:08:07.021Z,40.67
2019-04-11T02:10:37.017Z,23.98
2019-04-11T02:13:06.015Z,14.43
2019-04-11T02:15:34.872Z,10.48
2019-04-11T02:18:03.694Z,10.20
2019-04-11T02:20:33.336Z,6.12
2019-04-11T02:23:04.632Z,6.92
2019-04-11T02:25:38.734Z,8.25
2019-04-11T02:28:08.849Z,8.48
2019-04-11T02:30:41.034Z,6.25
2019-04-11T02:33:11.714Z,4.40
2019-04-11T02:35:42.344Z,6.67
2019-04-11T02:38:12.419Z,7.85
2019-04-11T02:40:42.692Z,5.55
2019-04-11T02:43:13.311Z,4.17
2019-04-11T02:45:52.600Z,4.97
2019-04-11T02:48:14.004Z,5.62
2019-04-11T02:50:47.837Z,2.72
2019-04-11T02:53:17.483Z,6.40
2019-04-11T02:55:46.867Z,7.90
2019-04-11T02:58:16.485Z,4.22
2019-04-11T03:00:45.636Z,5.30
2019-04-11T03:03:15.270Z,5.72
2019-04-11T03:05:46.899Z,3.87
2019-04-11T03:08:19.267Z,4.17
2019-04-11T03:10:46.921Z,4.70
2019-04-11T03:13:18.938Z,5.37
2019-04-11T03:16:00.508Z,6.08
2019-04-11T03:18:39.177Z,3.72
2019-04-11T03:20:56.159Z,5.53
2019-04-11T03:23:21.112Z,4.42
2019-04-11T03:25:50.446Z,5.80
2019-04-11T03:28:23.831Z,4.67
2019-04-11T03:31:13.291Z,6.65
2019-04-11T03:36:50.627Z,4.87
2019-04-11T03:38:50.699Z,5.28
2019-04-11T03:41:10.593Z,4.83
2019-04-11T03:43:36.601Z,5.17
2019-04-11T03:46:16.260Z,7.53
2019-04-11T03:48:40.875Z,5.00
2019-04-11T03:50:59.439Z,7.37
2019-04-11T03:53:29.919Z,6.22
2019-04-11T03:55:59.195Z,4.70
2019-04-11T03:58:29.351Z,5.37
2019-04-11T04:01:03.278Z,7.28
2019-04-11T04:03:30.983Z,4.67
2019-04-11T04:06:01.768Z,4.87
2019-04-11T04:08:31.479Z,6.78
2019-04-11T04:11:06.149Z,3.55
2019-04-11T04:13:38.757Z,5.58
2019-04-11T04:16:24.912Z,6.00
2019-04-11T04:19:09.678Z,6.12
2019-04-11T04:21:48.902Z,5.70
2019-04-11T04:24:22.852Z,5.60
2019-04-11T04:26:53.001Z,4.22
2019-04-11T04:29:25.128Z,5.12
2019-04-11T04:31:55.156Z,7.47
2019-04-11T04:34:24.113Z,12.18
2019-04-11T04:36:55.667Z,8.45
2019-04-11T04:39:27.085Z,6.15
2019-04-11T04:42:03.685Z,5.17
2019-04-11T04:44:26.601Z,4.60
2019-04-11T04:47:07.431Z,6.97
2019-04-11T04:49:25.891Z,6.55
2019-04-11T04:51:55.684Z,6.15
2019-04-11T04:54:24.966Z,6.85
2019-04-11T04:56:54.651Z,6.15
2019-04-11T04:59:24.269Z,4.55
2019-04-11T05:01:53.881Z,6.10
2019-04-11T05:04:24.006Z,5.08
2019-04-11T05:06:54.399Z,4.83
2019-04-11T05:09:23.633Z,6.55
2019-04-11T05:11:53.032Z,5.37
2019-04-11T05:14:23.365Z,6.10
2019-04-11T05:16:52.654Z,7.80
2019-04-11T05:19:22.569Z,8.43
2019-04-11T05:21:52.083Z,8.88
2019-04-11T05:24:21.285Z,11.60
2019-04-11T05:26:50.396Z,19.92
2019-04-11T05:29:19.617Z,10.18
2019-04-11T05:31:49.252Z,9.48
2019-04-11T05:34:18.344Z,8.60
2019-04-11T05:36:47.274Z,8.90
2019-04-11T05:39:18.357Z,7.58
2019-04-11T05:41:47.153Z,7.75
2019-04-11T05:44:17.169Z,6.37
2019-04-11T05:46:53.219Z,6.22
2019-04-11T05:49:22.803Z,6.72
2019-04-11T05:51:58.600Z,7.33
2019-04-11T05:54:28.195Z,7.33
2019-04-11T05:56:59.555Z,8.00
2019-04-11T05:59:30.732Z,6.55
2019-04-11T06:02:07.247Z,5.92
2019-04-11T06:04:45.706Z,5.08
2019-04-11T06:07:29.361Z,5.50
2019-04-11T06:10:08.480Z,5.35
2019-04-11T06:12:36.056Z,5.95
2019-04-11T06:15:08.795Z,8.15
2019-04-11T06:17:38.576Z,5.40
2019-04-11T06:20:12.591Z,6.55
2019-04-11T06:22:45.594Z,9.73
2019-04-11T06:25:32.781Z,5.95
2019-04-11T06:28:11.709Z,6.67
2019-04-11T06:30:51.309Z,6.00
2019-04-11T06:33:22.692Z,7.15
2019-04-11T06:36:09.720Z,7.40
2019-04-11T06:38:49.334Z,6.10
2019-04-11T06:41:26.311Z,6.53
2019-04-11T06:44:14.172Z,5.55
2019-04-11T06:46:57.344Z,8.03
2019-04-11T06:49:26.574Z,7.90
2019-04-11T06:51:57.028Z,9.98
2019-04-11T06:54:30.746Z,10.30
2019-04-11T06:57:01.286Z,7.28
2019-04-11T06:59:34.686Z,7.37
2019-04-11T07:02:16.403Z,7.17
2019-04-11T07:04:46.579Z,5.87
2019-04-11T07:07:16.386Z,7.78
2019-04-11T07:09:47.088Z,9.33
2019-04-11T07:12:17.726Z,8.73
2019-04-11T07:14:50.846Z,8.70
2019-04-11T07:17:38.597Z,6.30
2019-04-11T07:20:13.019Z,8.28
2019-04-11T07:22:59.719Z,8.03
2019-04-11T07:25:47.384Z,9.43
2019-04-11T07:28:33.672Z,6.37
2019-04-11T07:31:07.714Z,9.10
2019-04-11T07:33:40.971Z,5.90
2019-04-11T07:36:27.766Z,8.00
2019-04-11T07:39:07.815Z,7.40
2019-04-11T07:41:39.206Z,7.30
2019-04-11T07:44:28.658Z,7.83
2019-04-11T07:46:58.731Z,8.85
2019-04-11T07:49:44.989Z,6.80
2019-04-11T07:52:15.745Z,8.63
2019-04-11T07:54:45.625Z,8.58
2019-04-11T07:57:32.478Z,13.53
2019-04-11T08:00:03.781Z,7.05
2019-04-11T08:02:35.460Z,9.60
2019-04-11T08:05:24.058Z,8.08
2019-04-11T08:08:11.049Z,10.30
2019-04-11T08:10:45.645Z,6.78
2019-04-11T08:13:16.525Z,8.35
2019-04-11T08:15:48.074Z,13.32
2019-04-11T08:18:21.636Z,9.05
2019-04-11T08:21:08.777Z,8.33
2019-04-11T08:23:38.312Z,13.03
2019-04-11T08:26:24.683Z,10.75
2019-04-11T08:29:05.398Z,10.55
2019-04-11T08:31:42.897Z,9.38
2019-04-11T08:34:11.821Z,8.48
2019-04-11T08:36:58.990Z,10.40
2019-04-11T08:39:29.008Z,17.75
2019-04-11T08:41:59.588Z,10.30
2019-04-11T08:44:30.070Z,11.30
2019-04-11T08:47:01.021Z,9.20
2019-04-11T08:49:33.281Z,10.53
2019-04-11T08:52:04.120Z,7.25
2019-04-11T08:54:50.503Z,10.25
2019-04-11T08:57:30.094Z,17.10
2019-04-11T09:00:04.082Z,11.12
2019-04-11T09:02:35.373Z,11.10
2019-04-11T09:05:19.669Z,10.13
2019-04-11T09:07:56.080Z,12.25
2019-04-11T09:10:28.180Z,9.20
2019-04-11T09:12:59.043Z,8.23
2019-04-11T09:15:46.011Z,10.25
2019-04-11T09:18:15.365Z,11.15
2019-04-11T09:21:02.621Z,10.32
2019-04-11T09:23:31.471Z,11.25
2019-04-11T09:26:01.857Z,11.57
2019-04-11T09:28:35.635Z,11.50
2019-04-11T09:31:21.768Z,9.48
2019-04-11T09:33:57.701Z,9.48
2019-04-11T09:36:36.989Z,9.98
2019-04-11T09:39:19.306Z,10.65
2019-04-11T09:42:07.084Z,10.18
2019-04-11T09:44:49.854Z,15.75
2019-04-11T09:47:36.859Z,17.10
2019-04-11T09:50:08.344Z,10.53
2019-04-11T09:52:45.335Z,10.58
2019-04-11T09:55:29.007Z,10.70
2019-04-11T09:58:02.862Z,8.63
2019-04-11T10:00:51.080Z,11.73
2019-04-11T10:03:21.675Z,10.53
2019-04-11T10:05:58.697Z,10.90
2019-04-11T10:08:37.520Z,13.53
2019-04-11T10:11:11.224Z,15.13
2019-04-11T10:13:53.700Z,14.18
2019-04-11T10:16:26.775Z,10.88
2019-04-11T10:18:57.770Z,15.00
2019-04-11T10:21:28.998Z,12.98
2019-04-11T10:24:20.591Z,13.03
2019-04-11T10:26:56.319Z,17.05
2019-04-11T10:29:31.394Z,11.48
2019-04-11T10:32:01.155Z,13.60
2019-04-11T10:34:50.037Z,13.95
2019-04-11T10:37:20.610Z,13.60
2019-04-11T10:39:54.044Z,13.50
2019-04-11T10:42:24.570Z,14.87
2019-04-11T10:45:00.971Z,14.47
2019-04-11T10:47:31.410Z,16.95
2019-04-11T10:50:20.080Z,16.37
2019-04-11T10:52:50.902Z,15.32
2019-04-11T10:55:21.875Z,16.67
2019-04-11T10:58:08.722Z,18.98
2019-04-11T11:00:55.750Z,17.98
2019-04-11T11:03:27.333Z,15.32
2019-04-11T11:06:01.518Z,16.65
2019-04-11T11:08:38.152Z,15.60
2019-04-11T11:11:17.660Z,16.70
2019-04-11T11:13:56.617Z,14.93
2019-04-11T11:16:30.920Z,18.87
2019-04-11T11:19:31.794Z,17.95
2019-04-11T11:21:35.265Z,18.67
2019-04-11T11:24:07.201Z,20.77
2019-04-11T11:26:35.602Z,15.58
2019-04-11T11:29:14.626Z,15.45
2019-04-11T11:31:41.093Z,10.47
2019-04-11T11:34:14.673Z,13.55
2019-04-11T11:36:46.368Z,15.18
2019-04-11T11:39:17.382Z,15.63
2019-04-11T11:42:04.375Z,13.38
2019-04-11T11:44:35.027Z,12.45
2019-04-11T11:47:15.453Z,14.30
2019-04-11T11:49:55.077Z,16.57
2019-04-11T11:52:34.548Z,14.47
2019-04-11T11:55:04.415Z,14.55
2019-04-11T11:57:35.089Z,16.30
2019-04-11T12:00:07.159Z,16.95
2019-04-11T12:02:40.339Z,13.80
2019-04-11T12:05:16.311Z,17.92
2019-04-11T12:07:54.319Z,20.08
2019-04-11T12:10:39.526Z,16.77
2019-04-11T12:13:12.832Z,15.40
2019-04-11T12:15:54.298Z,20.72
2019-04-11T12:18:26.750Z,14.33
2019-04-11T12:21:03.377Z,13.98
2019-04-11T12:23:46.251Z,15.85
2019-04-11T12:26:10.946Z,15.93
2019-04-11T12:28:43.759Z,15.43
2019-04-11T12:31:13.377Z,15.65
2019-04-11T12:34:00.331Z,19.02
2019-04-11T12:36:30.789Z,15.65
2019-04-11T12:39:01.210Z,16.97
2019-04-11T12:41:37.645Z,17.32
2019-04-11T12:44:08.030Z,15.60
2019-04-11T12:46:54.667Z,13.98
2019-04-11T12:49:27.508Z,13.50
2019-04-11T12:52:14.647Z,12.28
2019-04-11T12:54:45.068Z,15.78
2019-04-11T12:57:32.019Z,17.23
2019-04-11T13:00:17.661Z,15.10
2019-04-11T13:03:03.144Z,11.88
2019-04-11T13:05:44.314Z,15.17
2019-04-11T13:08:31.134Z,13.30
2019-04-11T13:11:00.573Z,21.60
2019-04-11T13:13:47.425Z,17.82
2019-04-11T13:16:16.753Z,12.88
2019-04-11T13:18:47.185Z,16.65
2019-04-11T13:21:17.586Z,14.98
2019-04-11T13:23:56.820Z,18.60
2019-04-11T13:26:36.394Z,13.18
2019-04-11T13:29:06.813Z,13.85
2019-04-11T13:31:40.205Z,12.10
2019-04-11T13:34:11.269Z,19.30
2019-04-11T13:36:57.869Z,17.90
2019-04-11T13:39:27.268Z,15.93
2019-04-11T13:42:13.990Z,16.85
2019-04-11T13:44:45.133Z,18.50
2019-04-11T13:47:15.530Z,16.25
2019-04-11T13:49:46.065Z,18.40
2019-04-11T13:52:19.709Z,19.32
2019-04-11T13:54:50.201Z,17.98
2019-04-11T13:57:26.760Z,15.95
2019-04-11T14:00:13.355Z,14.73
2019-04-11T14:02:51.285Z,17.23
2019-04-11T14:05:18.043Z,18.67
2019-04-11T14:07:48.574Z,20.95
2019-04-11T14:10:18.355Z,22.27
2019-04-11T14:12:47.653Z,17.10
2019-04-11T14:15:23.304Z,15.48
2019-04-11T14:17:53.763Z,14.40
2019-04-11T14:20:36.429Z,14.33
2019-04-11T14:23:13.672Z,18.07
2019-04-11T14:25:49.389Z,15.63
2019-04-11T14:28:19.781Z,18.92
2019-04-11T14:30:52.219Z,16.77
2019-04-11T14:33:23.596Z,14.13
2019-04-11T14:35:52.739Z,15.78
2019-04-11T14:38:32.014Z,13.85
2019-04-11T14:41:07.007Z,14.75
2019-04-11T14:43:37.475Z,16.80
2019-04-11T14:46:07.961Z,17.32
2019-04-11T14:48:47.372Z,12.78
2019-04-11T14:51:32.889Z,12.13
2019-04-11T14:54:06.183Z,13.47
2019-04-11T14:56:42.634Z,17.12
2019-04-11T14:59:25.145Z,17.45
2019-04-11T15:01:55.518Z,17.80
2019-04-11T15:04:25.914Z,19.87
2019-04-11T15:06:56.317Z,16.37
2019-04-11T15:09:46.486Z,15.25
2019-04-11T15:12:18.434Z,15.38
2019-04-11T15:14:54.981Z,14.68
2019-04-11T15:17:26.362Z,15.10
2019-04-11T15:19:57.373Z,13.88
2019-04-11T15:22:40.063Z,16.60
2019-04-11T15:25:19.291Z,12.73
2019-04-11T15:27:49.705Z,14.43
2019-04-11T15:30:20.112Z,16.00
2019-04-11T15:33:02.623Z,14.95
2019-04-11T15:35:31.428Z,13.62
2019-04-11T15:38:13.894Z,20.50
2019-04-11T15:40:43.548Z,15.20
2019-04-11T15:43:13.934Z,17.32
2019-04-11T15:45:46.534Z,20.72
2019-04-11T15:48:33.787Z,18.30
2019-04-11T15:51:21.062Z,18.70
2019-04-11T15:53:51.455Z,18.32
2019-04-11T15:56:41.843Z,20.70
2019-04-11T15:59:15.878Z,12.82
2019-04-11T16:02:03.217Z,15.58
2019-04-11T16:04:33.539Z,21.75
2019-04-11T16:07:05.830Z,12.63
2019-04-11T16:09:34.456Z,13.32
2019-04-11T16:12:20.116Z,16.97
2019-04-11T16:14:53.315Z,16.60
2019-04-11T16:17:36.083Z,17.23
2019-04-11T16:20:07.063Z,15.63
2019-04-11T16:22:37.529Z,13.90
2019-04-11T16:25:11.724Z,13.05
2019-04-11T16:27:47.867Z,15.98
2019-04-11T16:30:24.148Z,17.10
2019-04-11T16:33:00.255Z,13.78
2019-04-11T16:35:33.674Z,14.07
2019-04-11T16:38:04.069Z,10.93
2019-04-11T16:40:53.486Z,13.13
2019-04-11T16:43:24.358Z,14.45
2019-04-11T16:46:05.826Z,11.15
2019-04-11T16:48:34.645Z,17.85
2019-04-11T16:51:05.707Z,15.18
2019-04-11T16:53:33.953Z,18.17
2019-04-11T16:56:02.791Z,14.95
2019-04-11T16:58:31.599Z,12.58
2019-04-11T17:01:00.465Z,13.48
2019-04-11T17:03:29.259Z,12.35
2019-04-11T17:06:02.389Z,13.30
2019-04-11T17:08:32.804Z,13.50
2019-04-11T17:11:05.857Z,15.08
2019-04-11T17:13:34.711Z,14.20
2019-04-11T17:16:05.198Z,14.53
2019-04-11T17:18:34.976Z,13.93
2019-04-11T17:21:07.868Z,10.85
2019-04-11T17:23:34.368Z,12.50
2019-04-11T17:26:03.715Z,10.63
2019-04-11T17:28:32.546Z,11.28
2019-04-11T17:31:02.415Z,12.50
2019-04-11T17:33:31.338Z,10.50
2019-04-11T17:36:02.872Z,14.80
2019-04-11T17:38:30.694Z,16.30
2019-04-11T17:40:59.939Z,18.67
2019-04-11T17:43:28.762Z,13.03
2019-04-11T17:45:58.628Z,16.57
2019-04-11T17:48:27.443Z,13.45
2019-04-11T17:50:56.786Z,15.13
2019-04-11T17:53:26.137Z,12.63
2019-04-11T17:55:55.860Z,15.15
2019-04-11T17:58:26.800Z,11.10
2019-04-11T18:01:00.178Z,11.18
2019-04-11T18:03:28.049Z,11.70
2019-04-11T18:05:58.450Z,11.70
2019-04-11T18:08:27.363Z,10.70
2019-04-11T18:10:56.654Z,14.30
2019-04-11T18:13:30.533Z,10.55
2019-04-11T18:15:56.200Z,11.35
2019-04-11T18:18:24.979Z,13.28
2019-04-11T18:20:53.803Z,14.93
2019-04-11T18:23:22.639Z,10.35
2019-04-11T18:25:51.829Z,16.95
2019-04-11T18:28:21.957Z,14.03
2019-04-11T18:30:53.825Z,12.53
2019-04-11T18:33:21.780Z,14.93
2019-04-11T18:35:50.593Z,10.93
2019-04-11T18:38:19.434Z,12.95
2019-04-11T18:40:48.251Z,10.85
2019-04-11T18:43:17.064Z,16.23
2019-04-11T18:45:46.007Z,13.85
2019-04-11T18:48:14.826Z,11.18
2019-04-11T18:50:43.634Z,8.23
2019-04-11T18:53:12.469Z,13.05
2019-04-11T18:55:41.440Z,10.35
2019-04-11T18:58:10.309Z,10.38
2019-04-11T19:00:39.337Z,15.38
2019-04-11T19:03:10.265Z,9.55
2019-04-11T19:05:42.815Z,9.78
2019-04-11T19:08:12.910Z,9.68
2019-04-11T19:10:40.264Z,10.68
2019-04-11T19:13:09.076Z,11.57
2019-04-11T19:15:37.895Z,9.23
2019-04-11T19:18:07.153Z,10.08
2019-04-11T19:20:36.155Z,9.98
2019-04-11T19:23:07.774Z,10.72
2019-04-11T19:25:35.538Z,10.90
2019-04-11T19:28:04.468Z,9.08
2019-04-11T19:30:33.286Z,9.25
2019-04-11T19:33:02.130Z,13.20
2019-04-11T19:35:30.947Z,9.60
2019-04-11T19:38:01.164Z,10.50
2019-04-11T19:40:30.548Z,11.75
2019-04-11T19:42:59.683Z,10.98
2019-04-11T19:45:28.537Z,8.60
2019-04-11T19:47:57.389Z,11.45
2019-04-11T19:50:28.753Z,10.03
2019-04-11T19:52:56.659Z,8.13
2019-04-11T19:55:27.058Z,6.92
2019-04-11T19:57:56.073Z,10.13
2019-04-11T20:00:25.832Z,6.83
2019-04-11T20:02:54.788Z,8.10
2019-04-11T20:05:23.643Z,7.78
2019-04-11T20:07:52.496Z,10.63
2019-04-11T20:10:21.660Z,5.62
2019-04-11T20:12:50.499Z,6.17
2019-04-11T20:15:19.312Z,10.40
2019-04-11T20:17:51.175Z,6.33
2019-04-11T20:20:18.564Z,9.30
2019-04-11T20:22:58.278Z,6.30
2019-04-11T20:25:17.875Z,5.45
2019-04-11T20:27:48.074Z,6.45
2019-04-11T20:30:18.411Z,7.50
2019-04-11T20:32:47.248Z,5.50
2019-04-11T20:35:16.091Z,4.92
2019-04-11T20:37:45.354Z,8.38
2019-04-11T20:40:17.439Z,8.33
2019-04-11T20:42:44.656Z,7.83
2019-04-11T20:45:13.589Z,6.75
2019-04-11T20:47:42.388Z,7.60
2019-04-11T20:50:11.486Z,10.58
2019-04-11T20:52:40.441Z,6.20
2019-04-11T20:55:09.864Z,6.08
2019-04-11T20:57:40.472Z,9.48
2019-04-11T21:00:12.076Z,8.13
2019-04-11T21:02:39.941Z,8.10
2019-04-11T21:05:08.758Z,10.88
2019-04-11T21:07:39.135Z,7.05
2019-04-11T21:10:08.611Z,8.30
2019-04-11T21:12:37.974Z,4.85
2019-04-11T21:15:08.046Z,10.10
2019-04-11T21:17:36.865Z,7.87
2019-04-11T21:20:07.335Z,10.18
2019-04-11T21:22:36.179Z,8.53
2019-04-11T21:25:06.094Z,11.78
2019-04-11T21:27:34.900Z,9.90
2019-04-11T21:30:04.611Z,12.15
2019-04-11T21:32:33.435Z,11.00
2019-04-11T21:35:02.963Z,8.30
2019-04-11T21:37:31.980Z,11.50
2019-04-11T21:40:00.779Z,9.53
2019-04-11T21:42:29.601Z,9.98
2019-04-11T21:44:58.448Z,12.82
2019-04-11T21:47:27.245Z,10.80
2019-04-11T21:49:56.073Z,7.62
2019-04-11T21:52:24.922Z,12.28
2019-04-11T21:54:53.735Z,14.23
2019-04-11T21:57:22.584Z,8.83
2019-04-11T21:59:52.167Z,11.60
2019-04-11T22:02:24.026Z,12.30
2019-04-11T22:04:51.553Z,10.18
2019-04-11T22:07:20.413Z,9.88
2019-04-11T22:09:49.215Z,12.20
2019-04-11T22:12:18.018Z,5.67
2019-04-11T22:14:46.858Z,9.68
2019-04-11T22:17:16.136Z,10.10
2019-04-11T22:19:45.715Z,13.48
2019-04-11T22:22:15.434Z,8.78
2019-04-11T22:24:44.221Z,7.33
2019-04-11T22:27:13.050Z,9.30
2019-04-11T22:29:41.879Z,8.53
2019-04-11T22:32:10.694Z,12.25
2019-04-11T22:34:46.560Z,13.28
2019-04-11T22:37:15.381Z,9.53
2019-04-11T22:39:44.250Z,9.75
2019-04-11T22:42:13.183Z,6.45
2019-04-11T22:44:41.986Z,13.18
2019-04-11T22:47:10.786Z,5.37
2019-04-11T22:49:40.065Z,8.98
2019-04-11T22:52:11.312Z,12.45
2019-04-11T22:54:41.259Z,6.20
2019-04-11T22:57:12.135Z,8.48
2019-04-11T22:59:43.968Z,7.78
2019-04-11T23:02:12.499Z,7.33
2019-04-11T23:04:41.334Z,9.73
2019-04-11T23:07:10.156Z,6.15
2019-04-11T23:09:38.963Z,8.38
2019-04-11T23:12:07.887Z,6.65
2019-04-11T23:14:36.693Z,6.53
2019-04-11T23:17:05.494Z,6.92
2019-04-11T23:19:35.427Z,7.10
2019-04-11T23:22:04.188Z,6.78
2019-04-11T23:24:33.625Z,7.35
2019-04-11T23:27:02.460Z,6.55
2019-04-11T23:29:31.256Z,5.95
2019-04-11T23:32:00.050Z,5.15
2019-04-11T23:34:28.898Z,4.50
2019-04-11T23:36:57.685Z,6.92
2019-04-11T23:39:26.493Z,6.20
2019-04-11T23:41:55.343Z,5.53
2019-04-11T23:44:24.139Z,4.45
2019-04-11T23:46:52.954Z,4.40
2019-04-11T23:49:24.786Z,3.55
2019-04-11T23:51:55.708Z,8.70
2019-04-11T23:54:41.998Z,5.22
2019-04-11T23:57:10.893Z,4.67
2019-04-11T23:59:39.720Z,4.95
